Time;durP1;ratioP1;P1;durP2;ratioP2;P2;SDS_P1;SDS_P2;PMS_P1;PMS_P2;Temp;Humidity;BMP_temperature;BMP_pressure;BME280_temperature;BME280_humidity;BME280_pressure;Samples;Min_cycle;Max_cycle;Signal;HPM_P1;HPM_P2
2023/06/05 00:01:47;;;;;;;1999.90;999.90;;;;;;;17.61;100.00;95346.56;5049726;28;20194;-59
2023/06/05 00:04:13;;;;;;;1999.90;999.90;;;;;;;17.56;100.00;95352.66;5065615;28;20202;-58
2023/06/05 00:06:39;;;;;;;1999.90;999.90;;;;;;;17.58;100.00;95351.00;5049081;28;20209;-59
2023/06/05 00:09:05;;;;;;;1999.90;999.90;;;;;;;17.62;100.00;95350.84;5065880;28;20272;-58
2023/06/05 00:11:30;;;;;;;1999.90;999.90;;;;;;;17.64;100.00;95351.97;5048829;28;20267;-58
2023/06/05 00:13:56;;;;;;;1999.90;999.90;;;;;;;17.63;100.00;95349.66;5065475;28;20190;-58
2023/06/05 00:16:21;;;;;;;1999.90;999.90;;;;;;;17.67;100.00;95342.00;5048585;28;20186;-58
2023/06/05 00:18:48;;;;;;;1999.90;999.90;;;;;;;17.62;100.00;95340.59;5065200;28;20305;-58
2023/06/05 00:21:13;;;;;;;1999.90;999.90;;;;;;;17.65;100.00;95345.22;5065595;28;20193;-58
2023/06/05 00:23:38;;;;;;;1999.90;999.90;;;;;;;17.60;100.00;95337.50;5049061;28;20197;-59
2023/06/05 00:26:04;;;;;;;1999.90;999.90;;;;;;;17.50;100.00;95326.84;5065276;28;20170;-59
2023/06/05 00:28:29;;;;;;;1999.90;999.90;;;;;;;17.52;100.00;95340.97;5048670;28;20194;-58
2023/06/05 00:30:55;;;;;;;1999.90;999.90;;;;;;;17.48;100.00;95329.28;5048390;28;20290;-58
2023/06/05 00:33:20;;;;;;;1999.90;999.90;;;;;;;17.39;100.00;95326.41;5065091;28;20194;-59
2023/06/05 00:35:45;;;;;;;1999.90;999.90;;;;;;;17.32;100.00;95323.91;5048308;28;20269;-58
2023/06/05 00:38:11;;;;;;;1999.90;999.90;;;;;;;17.21;100.00;95331.78;5048071;28;20190;-58
2023/06/05 00:40:36;;;;;;;1999.90;999.90;;;;;;;17.31;100.00;95330.66;5064843;28;20193;-59
2023/06/05 00:43:02;;;;;;;1999.90;999.90;;;;;;;17.35;100.00;95323.00;5048237;28;20215;-58
2023/06/05 00:45:27;;;;;;;1999.90;999.90;;;;;;;17.30;100.00;95326.34;5064903;28;20200;-58
2023/06/05 00:47:53;;;;;;;1999.90;999.90;;;;;;;17.33;100.00;95323.47;5064767;28;20197;-59
2023/06/05 00:50:21;;;;;;;1999.90;999.90;;;;;;;17.26;100.00;95317.44;5064611;28;20201;-59
2023/06/05 00:52:49;;;;;;;1999.90;999.90;;;;;;;17.21;100.00;95316.00;5047920;28;20315;-58
2023/06/05 00:55:14;;;;;;;1999.90;999.90;;;;;;;17.11;100.00;95321.91;5064496;28;20174;-59
2023/06/05 00:57:40;;;;;;;1999.90;999.90;;;;;;;17.04;100.00;95314.63;5064977;28;20199;-59
2023/06/05 01:00:08;;;;;;;1999.90;999.90;;;;;;;17.10;100.00;95309.31;5048252;28;20186;-58
2023/06/05 01:02:35;;;;;;;1999.90;999.90;;;;;;;16.95;100.00;95313.78;5048038;28;20284;-58
2023/06/05 01:05:00;;;;;;;1999.90;999.90;;;;;;;16.97;100.00;95311.34;5064224;28;20200;-59
2023/06/05 01:07:27;;;;;;;1999.90;999.90;;;;;;;16.97;100.00;95317.63;5047732;28;20189;-58
2023/06/05 01:09:54;;;;;;;1999.90;999.90;;;;;;;16.87;100.00;95315.22;5064065;28;20192;-57
2023/06/05 01:12:50;;;;;;;1999.90;999.90;;;;;;;16.89;100.00;95315.56;5064332;28;20233;-58
2023/06/05 01:15:18;;;;;;;1999.90;999.90;;;;;;;16.87;100.00;95323.50;5039711;28;20197;-58
2023/06/05 01:17:47;;;;;;;1999.90;999.90;;;;;;;16.85;100.00;95321.19;5063782;28;20200;-58
2023/06/05 01:20:13;;;;;;;1999.90;999.90;;;;;;;16.79;100.00;95313.94;5064745;28;20265;-58
2023/06/05 01:22:38;;;;;;;1999.90;999.90;;;;;;;16.76;100.00;95309.31;5064568;28;20201;-58
2023/06/05 01:25:07;;;;;;;1999.90;999.90;;;;;;;16.72;100.00;95305.88;5047589;28;20208;-58
2023/06/05 01:27:46;;;;;;;1999.90;999.90;;;;;;;16.70;100.00;95309.09;5047291;28;20224;-58
2023/06/05 01:30:24;;;;;;;1999.90;999.90;;;;;;;16.81;100.00;95306.75;5064356;28;20217;-58
2023/06/05 01:32:56;;;;;;;1999.90;999.90;;;;;;;16.73;100.00;95301.91;5064382;28;20219;-59
2023/06/05 01:35:27;;;;;;;1999.90;999.90;;;;;;;16.74;100.00;95304.22;5064394;28;20205;-58
2023/06/05 01:37:54;;;;;;;1999.90;999.90;;;;;;;16.66;100.00;95302.13;5064328;28;20204;-58
2023/06/05 01:40:22;;;;;;;1999.90;999.90;;;;;;;16.59;100.00;95302.38;5064220;28;20191;-58
2023/06/05 01:42:50;;;;;;;1999.90;999.90;;;;;;;16.52;100.00;95292.34;5064194;28;20206;-58
2023/06/05 01:45:16;;;;;;;1999.90;999.90;;;;;;;16.52;100.00;95297.09;5043495;28;20206;-60
2023/06/05 01:47:42;;;;;;;1999.90;999.90;;;;;;;16.46;100.00;95293.38;5026744;28;20288;-58
2023/06/05 01:50:08;;;;;;;1999.90;999.90;;;;;;;16.50;100.00;95296.78;5026208;28;20210;-58
2023/06/05 01:52:35;;;;;;;1999.90;999.90;;;;;;;16.52;100.00;95297.88;5026306;28;20221;-58
2023/06/05 01:55:03;;;;;;;1999.90;999.90;;;;;;;16.44;100.00;95291.81;5026395;28;20298;-59
2023/06/05 01:57:29;;;;;;;1999.90;999.90;;;;;;;16.48;100.00;95288.16;5026462;28;20206;-58
2023/06/05 01:59:55;;;;;;;1999.90;999.90;;;;;;;16.50;100.00;95283.00;5026544;28;20210;-58
2023/06/05 02:02:21;;;;;;;1999.90;999.90;;;;;;;16.48;100.00;95285.41;5026185;28;20210;-58
2023/06/05 02:04:47;;;;;;;1999.90;999.90;;;;;;;16.44;100.00;95288.28;5026561;28;20214;-58
2023/06/05 02:07:14;;;;;;;1999.90;999.90;;;;;;;16.32;100.00;95284.28;5026114;28;20198;-58
2023/06/05 02:09:40;;;;;;;1999.90;999.90;;;;;;;16.34;100.00;95287.41;5026816;28;20183;-57
2023/06/05 02:12:06;;;;;;;1999.90;999.90;;;;;;;16.29;100.00;95289.94;5026310;28;20218;-58
2023/06/05 02:14:32;;;;;;;1999.90;999.90;;;;;;;16.24;100.00;95288.50;5026236;28;20221;-58
2023/06/05 02:16:58;;;;;;;1999.90;999.90;;;;;;;16.22;100.00;95290.16;5042921;28;20210;-58
2023/06/05 02:19:24;;;;;;;1999.90;999.90;;;;;;;16.10;100.00;95288.94;5063537;28;20198;-58
2023/06/05 02:21:51;;;;;;;1999.90;999.90;;;;;;;16.07;100.00;95278.78;5046786;28;20264;-58
2023/06/05 02:24:18;;;;;;;1999.90;999.90;;;;;;;16.05;100.00;95283.22;5046859;28;20197;-58
2023/06/05 02:26:44;;;;;;;1999.90;999.90;;;;;;;15.99;100.00;95280.22;5063445;28;20279;-58
2023/06/05 02:29:09;;;;;;;1999.90;999.90;;;;;;;15.99;100.00;95274.72;5047125;28;20209;-58
2023/06/05 02:31:36;;;;;;;1999.90;999.90;;;;;;;15.89;100.00;95273.06;5046340;28;20217;-58
2023/06/05 02:34:02;;;;;;;1999.90;999.90;;;;;;;15.88;100.00;95271.53;5046923;28;20198;-58
2023/06/05 02:36:32;;;;;;;1999.90;999.90;;;;;;;15.86;100.00;95273.97;5046804;28;20264;-58
2023/06/05 02:38:59;;;;;;;1999.90;999.90;;;;;;;15.82;100.00;95267.78;5046966;28;20202;-58
2023/06/05 02:41:26;;;;;;;1999.90;999.90;;;;;;;15.84;100.00;95276.38;5063136;28;20212;-58
2023/06/05 02:43:53;;;;;;;1999.90;999.90;;;;;;;15.79;100.00;95268.66;5063733;28;20280;-59
2023/06/05 02:46:18;;;;;;;1999.90;999.90;;;;;;;15.77;100.00;95271.06;5063256;28;20200;-58
2023/06/05 02:48:44;;;;;;;1999.90;999.90;;;;;;;15.74;100.00;95266.44;5046677;28;20193;-58
2023/06/05 02:51:10;;;;;;;1999.90;999.90;;;;;;;15.77;100.00;95259.31;5046669;28;20236;-57
2023/06/05 02:53:36;;;;;;;1999.90;999.90;;;;;;;15.72;100.00;95257.09;5062935;28;20204;-58
2023/06/05 02:56:02;;;;;;;1999.90;999.90;;;;;;;15.70;100.00;95268.53;5062976;28;20193;-58
2023/06/05 02:58:28;;;;;;;1999.90;999.90;;;;;;;15.67;100.00;95265.91;5046999;28;20204;-58
2023/06/05 03:00:55;;;;;;;1999.90;999.90;;;;;;;15.64;100.00;95266.78;5064328;28;20233;-58
2023/06/05 03:03:25;;;;;;;1999.90;999.90;;;;;;;15.67;100.00;95263.16;5050280;28;20216;-58
2023/06/05 03:05:52;;;;;;;1999.90;999.90;;;;;;;15.66;100.00;95265.13;5066636;28;20191;-58
2023/06/05 03:08:17;;;;;;;1999.90;999.90;;;;;;;15.65;100.00;95269.09;5050124;28;20265;-59
2023/06/05 03:10:43;;;;;;;1999.90;999.90;;;;;;;15.64;100.00;95262.03;5050307;28;20193;-58
2023/06/05 03:13:08;;;;;;;1999.90;999.90;;;;;;;15.65;100.00;95258.06;5049849;28;20197;-58
2023/06/05 03:15:34;;;;;;;1999.90;999.90;;;;;;;15.63;100.00;95254.97;5066418;28;20189;-58
2023/06/05 03:18:00;;;;;;;1999.90;999.90;;;;;;;15.59;100.00;95259.81;5066295;28;20201;-58
2023/06/05 03:20:26;;;;;;;1999.90;999.90;;;;;;;15.57;100.00;95262.25;5049847;28;20194;-58
2023/06/05 03:22:51;;;;;;;1999.90;999.90;;;;;;;15.57;100.00;95251.25;5050146;28;20296;-59
2023/06/05 03:25:17;;;;;;;1999.90;999.90;;;;;;;15.56;100.00;95255.19;5066653;28;20264;-58
2023/06/05 03:27:42;;;;;;;1999.90;999.90;;;;;;;15.54;100.00;95257.63;5049783;28;20272;-57
2023/06/05 03:30:08;;;;;;;1999.90;999.90;;;;;;;15.50;100.00;95256.94;5050109;28;20189;-58
2023/06/05 03:32:34;;;;;;;1999.90;999.90;;;;;;;15.48;100.00;95253.84;5066214;28;20320;-58
2023/06/05 03:34:59;;;;;;;1999.90;999.90;;;;;;;15.44;100.00;95257.94;5049310;28;20190;-58
2023/06/05 03:37:25;;;;;;;1999.90;999.90;;;;;;;15.48;100.00;95242.84;5066074;28;20177;-58
2023/06/05 03:39:50;;;;;;;1999.90;999.90;;;;;;;15.46;100.00;95245.28;5049778;28;20231;-58
2023/06/05 03:42:16;;;;;;;1999.90;999.90;;;;;;;15.46;100.00;95250.78;5049778;28;20197;-58
2023/06/05 03:44:41;;;;;;;1999.90;999.90;;;;;;;15.42;100.00;95244.63;5066041;28;20204;-58
2023/06/05 03:47:07;;;;;;;1999.90;999.90;;;;;;;15.41;100.00;95248.56;5065785;28;20275;-58
2023/06/05 03:49:33;;;;;;;1999.90;999.90;;;;;;;15.44;100.00;95244.94;5049866;28;20204;-58
2023/06/05 03:52:02;;;;;;;1999.90;999.90;;;;;;;15.49;100.00;95249.91;5065797;28;20280;-58
2023/06/05 03:54:28;;;;;;;1999.90;999.90;;;;;;;15.55;100.00;95252.91;5065669;28;20232;-58
2023/06/05 03:56:58;;;;;;;1999.90;999.90;;;;;;;15.58;100.00;95247.28;5065586;28;20312;-60
2023/06/05 03:59:25;;;;;;;1999.90;999.90;;;;;;;15.65;100.00;95247.06;5066052;28;20570;-58
2023/06/05 04:01:51;;;;;;;1999.90;999.90;;;;;;;15.63;100.00;95243.22;5065724;28;20196;-59
2023/06/05 04:04:16;;;;;;;1999.90;999.90;;;;;;;15.63;100.00;95243.97;5065396;28;20197;-59
2023/06/05 04:06:42;;;;;;;1999.90;999.90;;;;;;;15.58;100.00;95241.75;5065973;28;20193;-59
2023/06/05 04:09:11;;;;;;;1999.90;999.90;;;;;;;15.58;100.00;95247.28;5065916;28;20269;-58
2023/06/05 04:11:42;;;;;;;1999.90;999.90;;;;;;;15.63;100.00;95246.72;5064983;28;20209;-58
2023/06/05 04:14:08;;;;;;;1999.90;999.90;;;;;;;15.71;100.00;95250.81;5064820;28;20201;-58
2023/06/05 04:16:38;;;;;;;1999.90;999.90;;;;;;;15.76;100.00;95257.75;5065392;28;20189;-58
2023/06/05 04:19:04;;;;;;;1999.90;999.90;;;;;;;15.63;100.00;95257.72;5065204;28;20196;-58
2023/06/05 04:21:29;;;;;;;1999.90;999.90;;;;;;;15.69;100.00;95258.72;5048588;28;20272;-58
2023/06/05 04:23:55;;;;;;;1999.90;999.90;;;;;;;15.82;100.00;95259.53;5048370;28;20196;-58
2023/06/05 04:26:21;;;;;;;1999.90;999.90;;;;;;;15.85;100.00;95258.63;5065257;28;20189;-59
2023/06/05 04:28:50;;;;;;;1999.90;999.90;;;;;;;15.97;100.00;95263.38;5065708;28;20197;-59
2023/06/05 04:31:16;;;;;;;1999.90;999.90;;;;;;;16.08;100.00;95274.06;5064804;28;20216;-59
2023/06/05 04:33:41;;;;;;;1999.90;999.90;;;;;;;16.14;100.00;95275.81;5048571;28;20174;-58
2023/06/05 04:36:06;;;;;;;1999.90;999.90;;;;;;;16.25;100.00;95273.50;5049017;28;20197;-58
2023/06/05 04:38:32;;;;;;;1999.90;999.90;;;;;;;16.23;100.00;95273.19;5064750;28;20243;-58
2023/06/05 04:40:57;;;;;;;1999.90;999.90;;;;;;;16.28;100.00;95269.88;5048220;28;20209;-58
2023/06/05 04:43:23;;;;;;;1999.90;999.90;;;;;;;16.31;100.00;95266.22;5064672;28;20205;-58
2023/06/05 04:45:48;;;;;;;1999.90;999.90;;;;;;;16.38;100.00;95266.00;5064763;28;20205;-58
2023/06/05 04:48:14;;;;;;;1999.90;999.90;;;;;;;16.32;100.00;95278.03;5064795;28;20194;-58
2023/06/05 04:50:39;;;;;;;1999.90;999.90;;;;;;;16.27;100.00;95276.59;5064605;28;20206;-58
2023/06/05 04:53:05;;;;;;;1999.90;999.90;;;;;;;16.27;100.00;95287.63;5048092;28;20205;-58
2023/06/05 04:55:30;;;;;;;1999.90;999.90;;;;;;;16.14;100.00;95291.59;5048072;28;20198;-58
2023/06/05 04:58:00;;;;;;;1999.90;999.90;;;;;;;16.22;100.00;95285.41;5064358;28;20236;-59
2023/06/05 05:00:26;;;;;;;1999.90;999.90;;;;;;;16.30;100.00;95285.97;5064917;28;20235;-59
2023/06/05 05:02:52;;;;;;;1999.90;999.90;;;;;;;16.35;100.00;95288.94;5047920;28;20202;-58
2023/06/05 05:05:17;;;;;;;1999.90;999.90;;;;;;;16.45;100.00;95292.59;5064735;28;20197;-58
2023/06/05 05:07:43;;;;;;;1999.90;999.90;;;;;;;16.33;100.00;95287.84;5064897;28;20232;-58
2023/06/05 05:10:09;;;;;;;1999.90;999.90;;;;;;;16.42;100.00;95296.22;5048207;28;20276;-59
2023/06/05 05:12:35;;;;;;;1999.90;999.90;;;;;;;16.46;100.00;95287.84;5064175;28;20286;-59
2023/06/05 05:15:03;;;;;;;1999.90;999.90;;;;;;;16.66;100.00;95288.34;5047514;28;20201;-59
2023/06/05 05:17:30;;;;;;;1999.90;999.90;;;;;;;16.73;100.00;95301.91;5064109;28;20260;-59
2023/06/05 05:19:55;;;;;;;1999.90;999.90;;;;;;;16.89;100.00;95293.50;5064773;28;20198;-59
2023/06/05 05:22:21;;;;;;;1999.90;999.90;;;;;;;16.90;100.00;95295.03;5064276;28;20189;-58
2023/06/05 05:24:46;;;;;;;1999.90;999.90;;;;;;;17.07;100.00;95297.19;5047409;28;20213;-58
2023/06/05 05:27:11;;;;;;;1999.90;999.90;;;;;;;17.16;100.00;95302.00;5064105;28;20253;-58
2023/06/05 05:29:37;;;;;;;1999.90;999.90;;;;;;;17.11;100.00;95306.09;5064210;28;20190;-58
2023/06/05 05:32:02;;;;;;;1999.90;999.90;;;;;;;17.42;100.00;95314.50;5047041;28;20311;-59
2023/06/05 05:34:28;;;;;;;1999.90;999.90;;;;;;;17.54;100.00;95316.44;5047950;28;20237;-59
2023/06/05 05:36:53;;;;;;;1999.90;999.90;;;;;;;17.51;100.00;95328.38;5064201;28;20197;-59
2023/06/05 05:39:18;;;;;;;1999.90;999.90;;;;;;;17.63;100.00;95314.50;5064311;28;20194;-58
2023/06/05 05:41:44;;;;;;;1999.90;999.90;;;;;;;17.61;100.00;95322.47;5047658;28;20197;-59
2023/06/05 05:44:09;;;;;;;1999.90;999.90;;;;;;;17.62;100.00;95323.22;5063998;28;20200;-58
2023/06/05 05:46:35;;;;;;;1999.90;999.90;;;;;;;17.78;100.00;95320.28;5064387;28;20193;-58
2023/06/05 05:49:00;;;;;;;1999.90;999.90;;;;;;;18.15;100.00;95322.03;5063956;28;20196;-59
2023/06/05 05:51:25;;;;;;;1999.90;999.90;;;;;;;18.13;100.00;95329.97;5047057;28;20218;-58
2023/06/05 05:53:51;;;;;;;1999.90;999.90;;;;;;;18.09;100.00;95334.88;5063689;28;20197;-58
2023/06/05 05:56:17;;;;;;;1999.90;999.90;;;;;;;18.16;100.00;95329.09;5063642;28;20194;-58
2023/06/05 05:58:43;;;;;;;1999.90;999.90;;;;;;;18.42;100.00;95335.97;5063764;28;20246;-58
2023/06/05 06:01:08;;;;;;;1999.90;999.90;;;;;;;18.44;100.00;95328.00;5063551;28;20201;-58
2023/06/05 06:03:36;;;;;;;1999.90;999.90;;;;;;;18.51;100.00;95333.28;5063396;28;20276;-58
2023/06/05 06:06:03;;;;;;;1999.90;999.90;;;;;;;18.50;100.00;95342.81;5064175;28;20193;-57
2023/06/05 06:08:29;;;;;;;1999.90;999.90;;;;;;;18.46;100.00;95336.63;5063752;28;20189;-57
2023/06/05 06:10:55;;;;;;;1999.90;999.90;;;;;;;18.07;100.00;95332.56;5046855;28;20201;-56
2023/06/05 06:13:20;;;;;;;1999.90;999.90;;;;;;;18.33;100.00;95338.69;5063737;28;20196;-55
2023/06/05 06:15:46;;;;;;;1999.90;999.90;;;;;;;18.39;100.00;95347.97;5046748;28;20194;-57
2023/06/05 06:18:12;;;;;;;1999.90;999.90;;;;;;;18.59;100.00;95340.06;5046649;28;20198;-55
2023/06/05 06:20:37;;;;;;;1999.90;999.90;;;;;;;18.87;100.00;95339.66;5063258;28;20279;-57
2023/06/05 06:23:03;;;;;;;1999.90;999.90;;;;;;;18.80;100.00;95339.19;5063325;28;20198;-55
2023/06/05 06:25:28;;;;;;;1999.90;999.90;;;;;;;18.97;100.00;95337.69;5046732;28;20228;-57
2023/06/05 06:27:59;;;;;;;1999.90;999.90;;;;;;;18.93;100.00;95331.53;5047355;28;20265;-57
2023/06/05 06:30:25;;;;;;;1999.90;999.90;;;;;;;18.83;100.00;95335.53;5063837;28;20201;-57
2023/06/05 06:32:51;;;;;;;1999.90;999.90;;;;;;;18.89;100.00;95341.97;5047027;28;20210;-57
2023/06/05 06:35:17;;;;;;;1999.90;999.90;;;;;;;18.58;100.00;95344.06;5063947;28;20281;-57
2023/06/05 06:37:42;;;;;;;1999.90;999.90;;;;;;;18.55;100.00;95339.44;5067048;28;20193;-57
2023/06/05 06:40:09;;;;;;;1999.90;999.90;;;;;;;18.86;100.00;95332.59;5067138;28;20273;-57
2023/06/05 06:42:34;;;;;;;1999.90;999.90;;;;;;;18.75;100.00;95346.09;5067075;28;20237;-56
2023/06/05 06:45:00;;;;;;;1999.90;999.90;;;;;;;18.35;100.00;95350.09;5050317;28;20209;-57
2023/06/05 06:47:25;;;;;;;1999.90;999.90;;;;;;;18.33;100.00;95349.75;5066969;28;20198;-56
2023/06/05 06:49:51;;;;;;;1999.90;999.90;;;;;;;18.93;100.00;95346.16;5066807;28;20208;-57
2023/06/05 06:52:18;;;;;;;1999.90;999.90;;;;;;;18.80;100.00;95351.03;5066917;28;20288;-57
2023/06/05 06:54:44;;;;;;;1999.90;999.90;;;;;;;18.64;100.00;95353.28;5050055;28;20201;-57
2023/06/05 06:57:09;;;;;;;1999.90;999.90;;;;;;;18.61;100.00;95349.44;5050035;28;20304;-57
2023/06/05 06:59:34;;;;;;;1999.90;999.90;;;;;;;18.73;100.00;95356.09;5066928;28;20220;-56
2023/06/05 07:02:09;;;;;;;1999.90;999.90;;;;;;;18.63;100.00;95351.75;5066912;28;20190;-57
2023/06/05 07:04:35;;;;;;;1999.90;999.90;;;;;;;18.98;100.00;95353.09;5050468;28;20229;-56
2023/06/05 07:07:00;;;;;;;1999.90;999.90;;;;;;;19.41;100.00;95350.06;5050226;28;20190;-55
2023/06/05 07:09:26;;;;;;;1999.90;999.90;;;;;;;19.71;100.00;95357.47;5049752;28;20193;-55
2023/06/05 07:11:51;;;;;;;1999.90;999.90;;;;;;;19.84;100.00;95355.28;5066339;28;20216;-55
2023/06/05 07:14:16;;;;;;;1999.90;999.90;;;;;;;19.79;100.00;95353.16;5049928;28;20190;-57
2023/06/05 07:16:42;;;;;;;1999.90;999.90;;;;;;;20.12;100.00;95354.06;5066672;28;20197;-56
2023/06/05 07:19:07;;;;;;;1999.90;999.90;;;;;;;20.79;100.00;95348.88;5066213;28;20190;-57
2023/06/05 07:21:37;;;;;;;1999.90;999.90;;;;;;;21.27;100.00;95352.50;5066439;28;20265;-57
2023/06/05 07:24:03;;;;;;;1999.90;999.90;;;;;;;21.43;100.00;95350.06;5066343;28;20212;-56
2023/06/05 07:26:29;;;;;;;1999.90;999.90;;;;;;;22.11;100.00;95342.53;5066430;28;20190;-57
2023/06/05 07:28:54;;;;;;;1999.90;999.90;;;;;;;22.03;100.00;95344.91;5049916;28;20197;-57
2023/06/05 07:31:21;;;;;;;1999.90;999.90;;;;;;;22.03;100.00;95341.34;5065953;28;20209;-58
2023/06/05 07:33:46;;;;;;;1999.90;999.90;;;;;;;21.92;100.00;95344.72;5066889;28;20178;-57
2023/06/05 07:36:13;;;;;;;1999.90;999.90;;;;;;;21.89;100.00;95351.22;5066466;28;20229;-56
2023/06/05 07:38:39;;;;;;;1999.90;999.90;;;;;;;23.16;100.00;95347.00;5066165;28;20198;-56
2023/06/05 07:41:10;;;;;;;1999.90;999.90;;;;;;;24.15;100.00;95337.06;5066289;28;20202;-56
2023/06/05 07:43:39;;;;;;;1999.90;999.90;;;;;;;23.58;100.00;95352.88;5066360;28;20186;-57
2023/06/05 07:46:05;;;;;;;1999.90;999.90;;;;;;;23.57;100.00;95345.78;5065796;28;20211;-56
2023/06/05 07:48:30;;;;;;;1999.90;999.90;;;;;;;24.11;100.00;95342.09;5064739;28;20213;-52
2023/06/05 07:50:55;;;;;;;1999.90;999.90;;;;;;;24.09;100.00;95339.81;5065677;28;20217;-51
2023/06/05 07:53:21;;;;;;;1999.90;999.90;;;;;;;24.11;100.00;95342.09;5065615;28;20181;-54
2023/06/05 07:55:47;;;;;;;1999.90;999.90;;;;;;;24.95;100.00;95333.97;5066158;28;20188;-50
2023/06/05 07:58:13;;;;;;;1999.90;999.90;;;;;;;25.19;100.00;95345.53;5049489;28;20182;-50
2023/06/05 08:00:43;;;;;;;1999.90;999.90;;;;;;;25.00;100.00;95341.59;5048953;28;20174;-52
2023/06/05 08:03:08;;;;;;;1999.90;999.90;;;;;;;26.40;100.00;95340.41;5065894;28;20205;-51
2023/06/05 08:05:35;;;;;;;1999.90;999.90;;;;;;;27.89;100.00;95324.13;5066029;28;20190;-54
2023/06/05 08:08:02;;;;;;;1999.90;999.90;;;;;;;28.67;100.00;95332.09;5065931;28;20193;-52
2023/06/05 08:10:27;;;;;;;1999.90;999.90;;;;;;;29.00;93.72;95332.56;5065467;28;20228;-53
2023/06/05 08:12:53;;;;;;;1999.90;999.90;;;;;;;29.37;89.19;95334.78;5048662;28;20285;-54
2023/06/05 08:15:18;;;;;;;1999.90;999.90;;;;;;;28.26;91.70;95344.09;5065127;28;20216;-53
2023/06/05 08:17:43;;;;;;;1999.90;999.90;;;;;;;27.61;92.36;95350.78;5065511;28;20190;-54
2023/06/05 08:20:10;;;;;;;1999.90;999.90;;;;;;;26.00;100.00;95328.91;5065281;28;20185;-50
2023/06/05 08:22:39;;;;;;;1999.90;999.90;;;;;;;25.98;100.00;95337.78;5048595;28;20211;-50
2023/06/05 08:25:06;;;;;;;1999.90;999.90;;;;;;;26.96;100.00;95330.75;5048689;28;20186;-53
2023/06/05 08:27:32;;;;;;;1999.90;999.90;;;;;;;26.78;100.00;95331.28;5065028;28;20190;-52
2023/06/05 08:29:59;;;;;;;1999.90;999.90;;;;;;;26.98;100.00;95327.44;5048325;28;20174;-51
2023/06/05 08:32:24;;;;;;;1999.90;999.90;;;;;;;27.09;100.00;95333.78;5048751;28;20239;-53
2023/06/05 08:34:50;;;;;;;1999.90;999.90;;;;;;;26.97;98.99;95326.69;5064937;28;20198;-52
2023/06/05 08:37:16;;;;;;;1999.90;999.90;;;;;;;27.26;96.10;95330.97;5065236;28;20194;-49
2023/06/05 08:39:41;;;;;;;1999.90;999.90;;;;;;;26.54;99.23;95328.19;5064796;28;20198;-52
2023/06/05 08:42:07;;;;;;;1999.90;999.90;;;;;;;27.05;100.00;95322.06;5048158;28;20200;-53
2023/06/05 08:44:33;;;;;;;1999.90;999.90;;;;;;;27.16;95.08;95327.66;5048730;28;20264;-53
2023/06/05 08:47:01;;;;;;;1999.90;999.90;;;;;;;27.16;99.67;95322.03;5065009;28;20205;-55
2023/06/05 08:49:29;;;;;;;1999.90;999.90;;;;;;;27.83;89.43;95326.19;5064649;28;20208;-51
2023/06/05 08:52:00;;;;;;;1999.90;999.90;;;;;;;28.41;88.79;95318.47;5064995;28;20283;-52
2023/06/05 08:54:26;;;;;;;1999.90;999.90;;;;;;;29.91;81.67;95318.56;5065150;28;20190;-53
2023/06/05 08:56:52;;;;;;;1999.90;999.90;;;;;;;28.60;82.24;95327.03;5048247;28;20265;-54
2023/06/05 08:59:19;;;;;;;1999.90;999.90;;;;;;;28.57;84.31;95325.25;5064657;28;20166;-53
2023/06/05 09:01:47;;;;;;;1999.90;999.90;;;;;;;28.42;86.34;95324.84;5064877;28;20208;-54
2023/06/05 09:04:12;;;;;;;1999.90;999.90;;;;;;;28.65;85.41;95323.44;5064300;28;20210;-55
2023/06/05 09:06:39;;;;;;;1999.90;999.90;;;;;;;27.78;92.08;95326.97;5048008;28;20267;-53
2023/06/05 09:09:05;;;;;;;1999.90;999.90;;;;;;;28.13;90.22;95318.66;5064442;28;20194;-53
2023/06/05 09:11:31;;;;;;;1999.90;999.90;;;;;;;28.30;84.24;95310.13;5047696;28;20247;-55
2023/06/05 09:13:59;;;;;;;1999.90;999.90;;;;;;;28.70;79.45;95314.16;5064035;28;20189;-54
2023/06/05 09:16:38;;;;;;;1999.90;999.90;;;;;;;27.54;87.89;95324.00;5064081;28;20221;-53
2023/06/05 09:19:05;;;;;;;1999.90;999.90;;;;;;;27.14;87.52;95313.41;5064375;28;20249;-53
2023/06/05 09:21:32;;;;;;;1999.90;999.90;;;;;;;28.84;81.67;95310.22;5064343;28;20211;-54
2023/06/05 09:24:10;;;;;;;1999.90;999.90;;;;;;;27.47;86.27;95329.38;5047886;28;20173;-55
2023/06/05 09:26:57;;;;;;;1999.90;999.90;;;;;;;26.41;95.70;95325.16;5047910;28;20208;-54
2023/06/05 09:29:22;;;;;;;1999.90;999.90;;;;;;;27.15;89.97;95325.34;5047385;28;20196;-55
2023/06/05 09:31:49;;;;;;;1999.90;999.90;;;;;;;26.97;87.37;95309.84;5047302;28;20217;-50
2023/06/05 09:34:31;;;;;;;1999.90;999.90;;;;;;;25.29;100.00;95316.13;5063782;28;20201;-59
2023/06/05 09:36:58;;;;;;;1999.90;999.90;;;;;;;25.64;100.00;95310.94;5064349;28;20239;-57
2023/06/05 09:39:26;;;;;;;1999.90;999.90;;;;;;;26.83;95.69;95322.09;5064346;28;20186;-58
2023/06/05 09:41:54;;;;;;;1999.90;999.90;;;;;;;26.72;89.42;95316.50;5063964;28;20217;-58
2023/06/05 09:44:20;;;;;;;1999.90;999.90;;;;;;;25.79;99.98;95314.31;5064220;28;20224;-58
2023/06/05 09:46:53;;;;;;;1999.90;999.90;;;;;;;27.04;91.42;95303.72;5064233;28;20197;-56
2023/06/05 09:49:19;;;;;;;1999.90;999.90;;;;;;;27.20;87.03;95311.31;5064197;28;20189;-54
2023/06/05 09:51:46;;;;;;;1999.90;999.90;;;;;;;27.39;82.93;95311.56;5047126;28;20215;-53
2023/06/05 09:54:12;;;;;;;1999.90;999.90;;;;;;;27.53;85.37;95316.84;5063537;28;20197;-59
2023/06/05 09:56:41;;;;;;;1999.90;999.90;;;;;;;26.42;96.40;95309.84;5063710;28;20193;-58
2023/06/05 09:59:08;;;;;;;1999.90;999.90;;;;;;;26.54;99.01;95302.97;5063893;28;20221;-59
2023/06/05 10:01:36;;;;;;;1999.90;999.90;;;;;;;26.97;94.13;95297.84;5063542;28;20200;-58
2023/06/05 10:04:12;;;;;;;1999.90;999.90;;;;;;;27.16;86.76;95308.03;5046945;28;20244;-59
2023/06/05 10:06:40;;;;;;;1999.90;999.90;;;;;;;27.36;86.99;95301.38;5063406;28;20185;-58
2023/06/05 10:09:07;;;;;;;1999.90;999.90;;;;;;;26.96;93.42;95291.50;5047434;28;20185;-58
2023/06/05 10:11:33;;;;;;;1999.90;999.90;;;;;;;26.39;91.67;95294.06;5066286;28;20213;-56
2023/06/05 10:13:59;;;;;;;1999.90;999.90;;;;;;;26.36;92.83;95294.31;5067554;28;20217;-59
2023/06/05 10:16:27;;;;;;;1999.90;999.90;;;;;;;26.92;88.00;95291.00;5051087;28;20190;-60
2023/06/05 10:18:56;;;;;;;1999.90;999.90;;;;;;;26.10;90.17;95286.13;5067462;28;20196;-58
2023/06/05 10:21:22;;;;;;;1999.90;999.90;;;;;;;25.40;100.00;95282.63;5067232;28;20194;-57
2023/06/05 10:23:52;;;;;;;1999.90;999.90;;;;;;;24.84;100.00;95291.97;5050709;28;20213;-58
2023/06/05 10:26:32;;;;;;;1999.90;999.90;;;;;;;24.88;100.00;95286.91;5067715;28;20255;-58
2023/06/05 10:29:05;;;;;;;1999.90;999.90;;;;;;;24.69;100.00;95291.34;5050758;28;20189;-58
2023/06/05 10:31:58;;;;;;;1999.90;999.90;;;;;;;25.55;100.00;95276.81;5050914;28;20189;-57
2023/06/05 10:35:01;;;;;;;1999.90;999.90;;;;;;;26.47;97.75;95288.72;5050737;28;20201;-58
2023/06/05 10:37:36;;;;;;;1999.90;999.90;;;;;;;25.23;100.00;95290.13;5035311;28;20193;-59
2023/06/05 10:40:04;;;;;;;1999.90;999.90;;;;;;;24.88;100.00;95281.31;5050563;28;20204;-58
2023/06/05 10:42:30;;;;;;;1999.90;999.90;;;;;;;24.19;100.00;95281.78;5067392;28;20186;-58
2023/06/05 10:44:56;;;;;;;1999.90;999.90;;;;;;;24.97;100.00;95279.06;5050122;28;20193;-59
2023/06/05 10:47:33;;;;;;;1999.90;999.90;;;;;;;25.45;99.15;95284.66;5067299;28;20201;-58